createdAt,value
2022-08-11T00:00:25.087Z,79.700000
2022-08-11T00:05:26.094Z,79.800000
2022-08-11T00:10:26.989Z,79.800000
2022-08-11T00:15:27.904Z,79.900000
2022-08-11T00:20:28.838Z,80.000000
2022-08-11T00:25:29.765Z,80.100000
2022-08-11T00:30:30.888Z,80.100000
2022-08-11T00:35:53.803Z,80.200000
2022-08-11T00:40:32.885Z,80.300000
2022-08-11T00:45:33.795Z,80.400000
2022-08-11T00:50:34.756Z,80.500000
2022-08-11T00:55:35.740Z,80.600000
2022-08-11T01:00:36.766Z,80.700000
2022-08-11T01:05:37.802Z,80.700000
2022-08-11T01:10:38.789Z,80.700000
2022-08-11T01:15:39.760Z,80.800000
2022-08-11T01:20:47.406Z,81.000000
2022-08-11T01:25:57.464Z,80.900000
2022-08-11T01:30:42.870Z,80.800000
2022-08-11T01:35:43.821Z,81.000000
2022-08-11T01:40:44.720Z,81.100000
2022-08-11T01:45:45.679Z,81.200000
2022-08-11T01:50:46.643Z,81.400000
2022-08-11T01:55:47.519Z,81.500000
2022-08-11T02:00:48.602Z,81.600000
2022-08-11T02:05:49.466Z,81.600000
2022-08-11T02:10:51.446Z,81.800000
2022-08-11T02:15:51.411Z,82.000000
2022-08-11T02:20:52.334Z,82.000000
2022-08-11T02:25:53.391Z,82.100000
2022-08-11T02:30:54.380Z,82.200000
2022-08-11T02:35:55.427Z,82.000000
2022-08-11T02:40:56.430Z,82.300000
2022-08-11T02:45:57.488Z,82.200000
2022-08-11T02:50:58.418Z,82.200000
2022-08-11T02:55:59.432Z,82.300000
2022-08-11T03:01:00.487Z,82.400000
2022-08-11T03:06:01.546Z,82.500000
2022-08-11T03:11:02.580Z,82.416667
2022-08-11T03:16:03.501Z,82.483333
2022-08-11T03:21:04.622Z,82.583333
2022-08-11T03:26:05.670Z,82.600000
2022-08-11T03:31:06.720Z,82.700000
2022-08-11T03:36:07.801Z,82.700000
2022-08-11T03:41:49.348Z,83.000000
2022-08-11T03:46:10.039Z,83.100000
2022-08-11T03:51:11.027Z,83.100000
2022-08-11T03:56:12.038Z,83.100000
2022-08-11T04:01:12.868Z,83.100000
2022-08-11T04:06:13.884Z,83.200000
2022-08-11T04:11:14.914Z,83.200000
2022-08-11T04:15:15.838Z,83.200000
2022-08-11T04:20:16.850Z,83.100000
2022-08-11T04:25:17.961Z,83.400000
2022-08-11T04:40:20.765Z,83.300000
2022-08-11T04:45:21.853Z,83.300000
2022-08-11T04:50:22.836Z,83.300000
2022-08-11T04:55:23.796Z,83.300000
2022-08-11T05:00:24.833Z,83.300000
2022-08-11T05:05:25.874Z,83.600000
2022-08-11T05:10:26.813Z,83.600000
2022-08-11T05:15:27.841Z,83.700000
2022-08-11T05:20:28.792Z,83.800000
2022-08-11T05:26:42.577Z,84.200000
2022-08-11T05:26:47.405Z,84.200000
2022-08-11T05:30:30.863Z,83.900000
2022-08-11T05:36:01.372Z,83.900000
2022-08-11T05:40:32.896Z,83.800000
2022-08-11T05:45:42.606Z,83.900000
2022-08-11T05:50:34.791Z,83.700000
2022-08-11T05:55:35.835Z,83.700000
2022-08-11T06:00:36.774Z,83.900000
2022-08-11T06:05:43.302Z,83.500000
2022-08-11T06:10:38.719Z,83.700000
2022-08-11T06:15:39.673Z,83.400000
2022-08-11T06:20:40.778Z,82.900000
2022-08-11T06:25:41.738Z,82.200000
2022-08-11T06:30:42.704Z,81.700000
2022-08-11T06:35:43.621Z,81.500000
2022-08-11T06:40:44.486Z,80.600000
2022-08-11T06:45:45.504Z,80.300000
2022-08-11T06:50:46.629Z,80.000000
2022-08-11T06:55:55.435Z,78.800000
2022-08-11T07:00:48.594Z,78.500000
2022-08-11T07:05:49.545Z,78.700000
2022-08-11T07:10:50.572Z,77.800000
2022-08-11T07:16:13.309Z,77.700000
2022-08-11T07:20:52.535Z,77.600000
2022-08-11T07:25:53.558Z,77.100000
2022-08-11T07:30:54.603Z,77.000000
2022-08-11T07:35:55.637Z,75.800000
2022-08-11T07:40:56.630Z,75.900000
2022-08-11T07:45:57.605Z,75.600000
2022-08-11T07:50:58.617Z,75.600000
2022-08-11T07:55:59.636Z,75.400000
2022-08-11T08:01:01.277Z,74.900000
2022-08-11T08:11:02.631Z,74.900000
2022-08-11T08:16:03.734Z,74.733333
2022-08-11T08:21:04.785Z,74.800000
2022-08-11T08:26:05.750Z,74.600000
2022-08-11T08:31:06.666Z,74.500000
2022-08-11T08:36:07.614Z,74.600000
2022-08-11T08:41:08.647Z,75.600000
2022-08-11T08:46:09.613Z,75.900000
2022-08-11T08:51:11.002Z,76.400000
2022-08-11T08:56:11.652Z,76.200000
2022-08-11T09:01:12.666Z,76.500000
2022-08-11T09:06:13.641Z,76.500000
2022-08-11T09:11:14.715Z,74.300000
2022-08-11T09:15:19.788Z,73.600000
2022-08-11T09:20:16.530Z,73.600000
2022-08-11T09:25:17.468Z,73.700000
2022-08-11T09:30:18.379Z,72.400000
2022-08-11T09:35:19.330Z,72.200000
2022-08-11T09:40:20.296Z,72.100000
2022-08-11T09:45:21.244Z,70.300000
2022-08-11T09:50:22.581Z,71.600000
2022-08-11T09:55:23.316Z,70.200000
2022-08-11T10:00:24.243Z,70.500000
2022-08-11T10:05:25.158Z,70.400000
2022-08-11T10:10:26.175Z,70.200000
2022-08-11T10:15:26.965Z,69.900000
2022-08-11T10:20:27.812Z,69.700000
2022-08-11T10:25:28.769Z,69.000000
2022-08-11T10:30:29.765Z,68.700000
2022-08-11T10:35:30.756Z,68.400000
2022-08-11T10:40:31.775Z,68.500000
2022-08-11T10:45:32.776Z,68.400000
2022-08-11T10:50:33.769Z,68.900000
2022-08-11T10:55:34.769Z,68.600000
2022-08-11T11:00:35.783Z,67.600000
2022-08-11T11:05:36.793Z,68.400000
2022-08-11T11:10:37.740Z,68.300000
2022-08-11T11:15:38.759Z,67.800000
2022-08-11T11:20:43.717Z,67.100000
2022-08-11T11:25:40.610Z,67.200000
2022-08-11T11:30:41.643Z,66.500000
2022-08-11T11:35:42.547Z,66.400000
2022-08-11T11:40:43.509Z,65.800000
2022-08-11T11:45:44.489Z,65.400000
2022-08-11T11:50:45.399Z,65.700000
2022-08-11T11:55:46.460Z,65.900000
2022-08-11T12:00:47.440Z,65.800000
2022-08-11T12:05:48.399Z,65.400000
2022-08-11T12:10:49.359Z,65.600000
2022-08-11T12:16:31.289Z,65.200000
2022-08-11T12:20:51.372Z,65.200000
2022-08-11T12:26:10.026Z,63.500000
2022-08-11T12:30:54.218Z,63.600000
2022-08-11T12:36:00.995Z,63.600000
2022-08-11T12:41:30.449Z,63.300000
2022-08-11T12:45:56.312Z,63.400000
2022-08-11T12:50:57.329Z,63.100000
2022-08-11T12:56:03.870Z,62.400000
2022-08-11T13:00:59.362Z,61.700000
2022-08-11T13:06:00.379Z,61.900000
2022-08-11T13:11:01.548Z,60.500000
2022-08-11T13:16:02.590Z,60.400000
2022-08-11T13:21:03.494Z,59.400000
2022-08-11T13:26:04.595Z,59.300000
2022-08-11T13:31:05.665Z,59.300000
2022-08-11T13:36:06.637Z,59.100000
2022-08-11T13:46:08.521Z,59.800000
2022-08-11T13:51:09.446Z,59.500000
2022-08-11T13:56:10.329Z,59.300000
2022-08-11T14:02:03.395Z,58.200000
2022-08-11T14:02:21.851Z,58.200000
2022-08-11T14:06:12.189Z,58.600000
2022-08-11T14:12:19.847Z,58.600000
2022-08-11T14:12:21.030Z,58.600000
2022-08-11T14:16:14.215Z,58.500000
2022-08-11T14:21:15.186Z,59.100000
2022-08-11T14:25:19.279Z,58.500000
2022-08-11T14:30:20.195Z,58.800000
2022-08-11T14:35:21.155Z,58.700000
2022-08-11T14:40:22.075Z,58.700000
2022-08-11T14:45:23.002Z,58.100000
2022-08-11T14:50:23.955Z,58.400000
2022-08-11T14:55:24.806Z,59.000000
2022-08-11T15:00:25.786Z,58.400000
2022-08-11T15:05:26.831Z,58.300000
2022-08-11T15:10:27.792Z,58.400000
2022-08-11T15:15:28.785Z,58.500000
2022-08-11T15:20:29.782Z,57.800000
2022-08-11T15:25:30.787Z,57.900000
2022-08-11T15:30:33.233Z,57.600000
2022-08-11T15:35:39.046Z,57.700000
2022-08-11T15:40:33.745Z,57.500000
2022-08-11T15:45:34.691Z,57.700000
2022-08-11T15:50:35.683Z,58.100000
2022-08-11T15:55:36.582Z,57.200000
2022-08-11T16:00:37.654Z,57.000000
2022-08-11T16:05:46.441Z,57.700000
2022-08-11T16:10:40.766Z,57.500000
2022-08-11T16:15:40.644Z,58.300000
2022-08-11T16:20:41.589Z,59.200000
2022-08-11T16:27:01.867Z,59.400000
2022-08-11T16:27:10.280Z,59.400000
2022-08-11T16:30:43.497Z,59.400000
2022-08-11T16:35:44.555Z,61.400000
2022-08-11T16:40:45.615Z,61.700000
2022-08-11T16:45:46.557Z,60.200000
2022-08-11T16:50:47.590Z,62.100000
2022-08-11T16:55:52.413Z,61.500000
2022-08-11T17:00:49.886Z,60.800000
2022-08-11T17:05:54.189Z,60.200000
2022-08-11T17:10:54.780Z,61.100000
2022-08-11T17:15:52.726Z,60.800000
2022-08-11T17:20:53.614Z,61.500000
2022-08-11T17:25:59.871Z,61.000000
2022-08-11T17:30:55.629Z,61.700000
2022-08-11T17:35:56.666Z,61.700000
2022-08-11T17:40:57.610Z,61.400000
2022-08-11T17:45:58.586Z,61.100000
2022-08-11T17:50:59.664Z,61.800000
2022-08-11T17:56:00.639Z,62.200000
2022-08-11T18:01:02.318Z,62.100000
2022-08-11T18:06:02.713Z,62.433333
2022-08-11T18:11:03.765Z,61.916667
2022-08-11T18:16:04.891Z,62.400000
2022-08-11T18:21:05.835Z,62.500000
2022-08-11T18:26:07.464Z,63.000000
2022-08-11T18:31:12.775Z,63.500000
2022-08-11T18:36:08.780Z,63.700000
2022-08-11T18:41:09.712Z,64.000000
2022-08-11T18:46:10.811Z,64.500000
2022-08-11T18:51:30.429Z,65.200000
2022-08-11T18:56:12.841Z,65.400000
2022-08-11T19:01:13.924Z,65.900000
2022-08-11T19:06:38.450Z,66.200000
2022-08-11T19:10:15.762Z,66.300000
2022-08-11T19:15:16.804Z,67.000000
2022-08-11T19:20:17.750Z,67.700000
2022-08-11T19:25:23.284Z,68.000000
2022-08-11T19:30:19.663Z,68.400000
2022-08-11T19:35:20.697Z,68.800000
2022-08-11T19:40:21.827Z,69.200000
2022-08-11T19:45:22.846Z,69.900000
2022-08-11T19:50:24.363Z,70.100000
2022-08-11T19:55:24.673Z,70.700000
2022-08-11T20:00:25.774Z,71.100000
2022-08-11T20:05:26.841Z,71.700000
2022-08-11T20:10:27.756Z,72.400000
2022-08-11T20:15:28.771Z,72.600000
2022-08-11T20:20:29.794Z,72.900000
2022-08-11T20:25:30.783Z,73.200000
2022-08-11T20:30:32.104Z,73.500000
2022-08-11T20:35:33.038Z,73.500000
2022-08-11T20:40:33.929Z,73.600000
2022-08-11T20:45:35.005Z,74.000000
2022-08-11T20:50:36.031Z,74.600000
2022-08-11T20:55:46.397Z,74.700000
2022-08-11T21:00:38.710Z,74.700000
2022-08-11T21:06:10.177Z,75.400000
2022-08-11T21:10:39.964Z,75.500000
2022-08-11T21:15:47.438Z,76.100000
2022-08-11T21:20:42.092Z,76.700000
2022-08-11T21:25:42.983Z,76.800000
2022-08-11T21:30:43.962Z,77.700000
2022-08-11T21:35:45.321Z,77.700000
2022-08-11T21:40:45.936Z,77.900000
2022-08-11T21:45:46.836Z,78.300000
2022-08-11T21:50:47.837Z,78.900000
2022-08-11T21:55:48.857Z,78.800000
2022-08-11T22:00:49.670Z,79.400000
2022-08-11T22:05:50.720Z,79.900000
2022-08-11T22:10:51.803Z,80.100000
2022-08-11T22:15:52.701Z,80.300000
2022-08-11T22:20:53.725Z,80.200000
2022-08-11T22:26:00.942Z,80.300000
2022-08-11T22:30:55.800Z,80.200000
2022-08-11T22:35:56.688Z,80.300000
2022-08-11T22:40:57.700Z,80.200000
2022-08-11T22:45:58.842Z,80.400000
2022-08-11T22:50:59.678Z,80.300000
2022-08-11T22:56:00.634Z,80.200000
2022-08-11T23:01:01.652Z,80.300000
2022-08-11T23:06:02.613Z,80.300000
2022-08-11T23:11:03.564Z,80.300000
2022-08-11T23:16:04.682Z,80.300000
2022-08-11T23:21:05.659Z,80.300000
2022-08-11T23:26:06.555Z,80.300000
2022-08-11T23:31:07.506Z,80.300000
2022-08-11T23:36:08.492Z,80.300000
2022-08-11T23:41:09.503Z,80.300000
2022-08-11T23:46:10.483Z,80.400000
2022-08-11T23:51:11.481Z,80.400000
2022-08-11T23:56:12.447Z,80.500000
